sensor_id;sensor_type;location;lat;lon;timestamp;temperature;humidity
14995;DHT22;7593;49.006;8.372;2022-10-17T00:02:14;14.00;99.90
14995;DHT22;7593;49.006;8.372;2022-10-17T00:04:41;14.00;99.90
14995;DHT22;7593;49.006;8.372;2022-10-17T00:07:09;14.00;99.90
14995;DHT22;7593;49.006;8.372;2022-10-17T00:09:36;14.00;99.90
14995;DHT22;7593;49.006;8.372;2022-10-17T00:12:03;14.00;99.90
14995;DHT22;7593;49.006;8.372;2022-10-17T00:14:30;14.00;99.90
14995;DHT22;7593;49.006;8.372;2022-10-17T00:16:57;14.00;99.90
14995;DHT22;7593;49.006;8.372;2022-10-17T00:19:24;14.00;99.90
14995;DHT22;7593;49.006;8.372;2022-10-17T00:21:50;14.00;99.90
14995;DHT22;7593;49.006;8.372;2022-10-17T00:24:19;14.00;99.90
14995;DHT22;7593;49.006;8.372;2022-10-17T00:26:46;14.00;99.90
14995;DHT22;7593;49.006;8.372;2022-10-17T00:29:12;14.00;99.90
14995;DHT22;7593;49.006;8.372;2022-10-17T00:31:39;13.90;99.90
14995;DHT22;7593;49.006;8.372;2022-10-17T00:34:06;13.90;99.90
14995;DHT22;7593;49.006;8.372;2022-10-17T00:36:33;13.90;99.90
14995;DHT22;7593;49.006;8.372;2022-10-17T00:39:00;13.90;99.90
14995;DHT22;7593;49.006;8.372;2022-10-17T00:41:30;13.90;99.90
14995;DHT22;7593;49.006;8.372;2022-10-17T00:44:00;13.80;99.90
14995;DHT22;7593;49.006;8.372;2022-10-17T00:46:29;13.80;99.90
14995;DHT22;7593;49.006;8.372;2022-10-17T00:49:02;13.70;99.90
14995;DHT22;7593;49.006;8.372;2022-10-17T00:51:37;13.70;99.90
14995;DHT22;7593;49.006;8.372;2022-10-17T00:54:23;13.70;99.90
14995;DHT22;7593;49.006;8.372;2022-10-17T00:56:52;13.60;99.90
14995;DHT22;7593;49.006;8.372;2022-10-17T00:59:21;13.60;99.90
14995;DHT22;7593;49.006;8.372;2022-10-17T01:01:53;13.60;99.90
14995;DHT22;7593;49.006;8.372;2022-10-17T01:04:22;13.60;99.90
14995;DHT22;7593;49.006;8.372;2022-10-17T01:06:48;13.50;99.90
14995;DHT22;7593;49.006;8.372;2022-10-17T01:09:15;13.50;99.90
14995;DHT22;7593;49.006;8.372;2022-10-17T01:11:47;13.50;99.90
14995;DHT22;7593;49.006;8.372;2022-10-17T01:14:22;13.50;99.90
14995;DHT22;7593;49.006;8.372;2022-10-17T01:16:55;13.50;99.90
14995;DHT22;7593;49.006;8.372;2022-10-17T01:19:35;13.40;99.90
14995;DHT22;7593;49.006;8.372;2022-10-17T01:22:11;13.40;99.90
14995;DHT22;7593;49.006;8.372;2022-10-17T01:24:47;13.40;99.90
14995;DHT22;7593;49.006;8.372;2022-10-17T01:27:31;13.40;99.90
14995;DHT22;7593;49.006;8.372;2022-10-17T01:30:28;13.40;99.90
14995;DHT22;7593;49.006;8.372;2022-10-17T01:33:05;13.40;99.90
14995;DHT22;7593;49.006;8.372;2022-10-17T01:35:38;13.40;99.90
14995;DHT22;7593;49.006;8.372;2022-10-17T01:38:09;13.50;99.90
14995;DHT22;7593;49.006;8.372;2022-10-17T01:40:41;13.50;99.90
14995;DHT22;7593;49.006;8.372;2022-10-17T01:43:13;13.50;99.90
14995;DHT22;7593;49.006;8.372;2022-10-17T01:45:45;13.50;99.90
14995;DHT22;7593;49.006;8.372;2022-10-17T01:48:21;13.50;99.90
14995;DHT22;7593;49.006;8.372;2022-10-17T01:51:18;13.40;99.90
14995;DHT22;7593;49.006;8.372;2022-10-17T01:53:52;13.50;99.90
14995;DHT22;7593;49.006;8.372;2022-10-17T01:56:24;13.40;99.90
14995;DHT22;7593;49.006;8.372;2022-10-17T01:58:55;13.40;99.90
14995;DHT22;7593;49.006;8.372;2022-10-17T02:01:23;13.30;99.90
14995;DHT22;7593;49.006;8.372;2022-10-17T02:03:54;13.30;99.90
14995;DHT22;7593;49.006;8.372;2022-10-17T02:06:21;13.30;99.90
14995;DHT22;7593;49.006;8.372;2022-10-17T02:08:49;13.30;99.90
14995;DHT22;7593;49.006;8.372;2022-10-17T02:11:18;13.30;99.90
14995;DHT22;7593;49.006;8.372;2022-10-17T02:14:03;13.20;99.90
14995;DHT22;7593;49.006;8.372;2022-10-17T02:16:40;13.20;99.90
14995;DHT22;7593;49.006;8.372;2022-10-17T02:19:29;13.20;99.90
14995;DHT22;7593;49.006;8.372;2022-10-17T02:22:07;13.20;99.90
14995;DHT22;7593;49.006;8.372;2022-10-17T02:24:41;13.20;99.90
14995;DHT22;7593;49.006;8.372;2022-10-17T02:27:14;13.10;99.90
14995;DHT22;7593;49.006;8.372;2022-10-17T02:29:46;13.10;99.90
14995;DHT22;7593;49.006;8.372;2022-10-17T02:32:16;13.10;99.90
14995;DHT22;7593;49.006;8.372;2022-10-17T02:34:47;13.10;99.90
14995;DHT22;7593;49.006;8.372;2022-10-17T02:37:18;13.10;99.90
14995;DHT22;7593;49.006;8.372;2022-10-17T02:39:46;13.10;99.90
14995;DHT22;7593;49.006;8.372;2022-10-17T02:42:14;13.10;99.90
14995;DHT22;7593;49.006;8.372;2022-10-17T02:44:42;13.10;99.90
14995;DHT22;7593;49.006;8.372;2022-10-17T02:47:13;13.10;99.90
14995;DHT22;7593;49.006;8.372;2022-10-17T02:49:49;13.10;99.90
14995;DHT22;7593;49.006;8.372;2022-10-17T02:52:20;13.10;99.90
14995;DHT22;7593;49.006;8.372;2022-10-17T02:54:51;13.10;99.90
14995;DHT22;7593;49.006;8.372;2022-10-17T02:57:23;13.20;99.90
14995;DHT22;7593;49.006;8.372;2022-10-17T02:59:51;13.10;99.90
14995;DHT22;7593;49.006;8.372;2022-10-17T03:02:17;13.10;99.90
14995;DHT22;7593;49.006;8.372;2022-10-17T03:04:45;13.10;99.90
14995;DHT22;7593;49.006;8.372;2022-10-17T03:07:13;13.10;99.90
14995;DHT22;7593;49.006;8.372;2022-10-17T03:09:40;13.10;99.90
14995;DHT22;7593;49.006;8.372;2022-10-17T03:12:07;13.10;99.90
14995;DHT22;7593;49.006;8.372;2022-10-17T03:14:33;13.10;99.90
14995;DHT22;7593;49.006;8.372;2022-10-17T03:17:00;13.10;99.90
14995;DHT22;7593;49.006;8.372;2022-10-17T03:19:27;13.10;99.90
14995;DHT22;7593;49.006;8.372;2022-10-17T03:21:54;13.10;99.90
14995;DHT22;7593;49.006;8.372;2022-10-17T03:24:22;13.10;99.90
14995;DHT22;7593;49.006;8.372;2022-10-17T03:26:49;13.10;99.90
14995;DHT22;7593;49.006;8.372;2022-10-17T03:29:15;13.00;99.90
14995;DHT22;7593;49.006;8.372;2022-10-17T03:31:42;13.10;99.90
14995;DHT22;7593;49.006;8.372;2022-10-17T03:34:09;13.00;99.90
14995;DHT22;7593;49.006;8.372;2022-10-17T03:36:36;13.00;99.90
14995;DHT22;7593;49.006;8.372;2022-10-17T03:39:03;13.00;99.90
14995;DHT22;7593;49.006;8.372;2022-10-17T03:41:31;13.00;99.90
14995;DHT22;7593;49.006;8.372;2022-10-17T03:43:58;12.90;99.90
14995;DHT22;7593;49.006;8.372;2022-10-17T03:46:24;12.90;99.90
14995;DHT22;7593;49.006;8.372;2022-10-17T03:48:51;12.90;99.90
14995;DHT22;7593;49.006;8.372;2022-10-17T03:51:18;12.90;99.90
14995;DHT22;7593;49.006;8.372;2022-10-17T03:53:45;12.90;99.90
14995;DHT22;7593;49.006;8.372;2022-10-17T03:56:13;12.80;99.90
14995;DHT22;7593;49.006;8.372;2022-10-17T03:58:42;12.80;99.90
14995;DHT22;7593;49.006;8.372;2022-10-17T04:01:11;12.80;99.90
14995;DHT22;7593;49.006;8.372;2022-10-17T04:03:38;12.80;99.90
14995;DHT22;7593;49.006;8.372;2022-10-17T04:06:05;12.80;99.90
14995;DHT22;7593;49.006;8.372;2022-10-17T04:08:33;12.70;99.90
14995;DHT22;7593;49.006;8.372;2022-10-17T04:11:01;12.70;99.90
14995;DHT22;7593;49.006;8.372;2022-10-17T04:13:29;12.60;99.90
14995;DHT22;7593;49.006;8.372;2022-10-17T04:15:59;12.60;99.90
14995;DHT22;7593;49.006;8.372;2022-10-17T04:18:27;12.50;99.90
14995;DHT22;7593;49.006;8.372;2022-10-17T04:20:53;12.50;99.90
14995;DHT22;7593;49.006;8.372;2022-10-17T04:23:20;12.50;99.90
14995;DHT22;7593;49.006;8.372;2022-10-17T04:25:47;12.50;99.90
14995;DHT22;7593;49.006;8.372;2022-10-17T04:28:14;12.40;99.90
14995;DHT22;7593;49.006;8.372;2022-10-17T04:30:41;12.40;99.90
14995;DHT22;7593;49.006;8.372;2022-10-17T04:33:09;12.40;99.90
14995;DHT22;7593;49.006;8.372;2022-10-17T04:35:36;12.40;99.90
14995;DHT22;7593;49.006;8.372;2022-10-17T04:38:03;12.40;99.90
14995;DHT22;7593;49.006;8.372;2022-10-17T04:40:29;12.40;99.90
14995;DHT22;7593;49.006;8.372;2022-10-17T04:42:56;12.40;99.90
14995;DHT22;7593;49.006;8.372;2022-10-17T04:45:23;12.40;99.90
14995;DHT22;7593;49.006;8.372;2022-10-17T04:47:49;12.40;99.90
14995;DHT22;7593;49.006;8.372;2022-10-17T04:50:17;12.40;99.90
14995;DHT22;7593;49.006;8.372;2022-10-17T04:52:44;12.40;99.90
14995;DHT22;7593;49.006;8.372;2022-10-17T04:55:11;12.40;99.90
14995;DHT22;7593;49.006;8.372;2022-10-17T04:57:37;12.40;99.90
14995;DHT22;7593;49.006;8.372;2022-10-17T05:00:05;12.40;99.90
14995;DHT22;7593;49.006;8.372;2022-10-17T05:02:34;12.40;99.90
14995;DHT22;7593;49.006;8.372;2022-10-17T05:05:00;12.40;99.90
14995;DHT22;7593;49.006;8.372;2022-10-17T05:07:28;12.40;99.90
14995;DHT22;7593;49.006;8.372;2022-10-17T05:09:55;12.40;99.90
14995;DHT22;7593;49.006;8.372;2022-10-17T05:12:23;12.40;99.90
14995;DHT22;7593;49.006;8.372;2022-10-17T05:14:50;12.40;99.90
14995;DHT22;7593;49.006;8.372;2022-10-17T05:17:16;12.50;99.90
14995;DHT22;7593;49.006;8.372;2022-10-17T05:19:43;12.40;99.90
14995;DHT22;7593;49.006;8.372;2022-10-17T05:22:10;12.40;99.90
14995;DHT22;7593;49.006;8.372;2022-10-17T05:24:38;12.40;99.90
14995;DHT22;7593;49.006;8.372;2022-10-17T05:27:05;12.40;99.90
14995;DHT22;7593;49.006;8.372;2022-10-17T05:29:31;12.40;99.90
14995;DHT22;7593;49.006;8.372;2022-10-17T05:31:59;12.40;99.90
14995;DHT22;7593;49.006;8.372;2022-10-17T05:34:26;12.40;99.90
14995;DHT22;7593;49.006;8.372;2022-10-17T05:36:52;12.40;99.90
14995;DHT22;7593;49.006;8.372;2022-10-17T05:39:20;12.40;99.90
14995;DHT22;7593;49.006;8.372;2022-10-17T05:41:49;12.40;99.90
14995;DHT22;7593;49.006;8.372;2022-10-17T05:44:16;12.40;99.90
14995;DHT22;7593;49.006;8.372;2022-10-17T05:46:43;12.50;99.90
14995;DHT22;7593;49.006;8.372;2022-10-17T05:49:10;12.50;99.90
14995;DHT22;7593;49.006;8.372;2022-10-17T05:51:37;12.50;99.90
14995;DHT22;7593;49.006;8.372;2022-10-17T05:54:04;12.50;99.90
14995;DHT22;7593;49.006;8.372;2022-10-17T05:56:32;12.50;99.90
14995;DHT22;7593;49.006;8.372;2022-10-17T05:59:00;12.50;99.90
14995;DHT22;7593;49.006;8.372;2022-10-17T06:01:27;12.50;99.90
14995;DHT22;7593;49.006;8.372;2022-10-17T06:03:54;12.50;99.90
14995;DHT22;7593;49.006;8.372;2022-10-17T06:06:21;12.50;99.90
14995;DHT22;7593;49.006;8.372;2022-10-17T06:08:48;12.60;99.90
14995;DHT22;7593;49.006;8.372;2022-10-17T06:11:15;12.60;99.90
14995;DHT22;7593;49.006;8.372;2022-10-17T06:13:42;12.60;99.90
14995;DHT22;7593;49.006;8.372;2022-10-17T06:16:10;12.70;99.90
14995;DHT22;7593;49.006;8.372;2022-10-17T06:18:36;12.70;99.90
14995;DHT22;7593;49.006;8.372;2022-10-17T06:21:04;12.70;99.90
14995;DHT22;7593;49.006;8.372;2022-10-17T06:23:32;12.70;99.90
14995;DHT22;7593;49.006;8.372;2022-10-17T06:25:59;12.70;99.90
14995;DHT22;7593;49.006;8.372;2022-10-17T06:28:26;12.70;99.90
14995;DHT22;7593;49.006;8.372;2022-10-17T06:30:52;12.80;99.90
14995;DHT22;7593;49.006;8.372;2022-10-17T06:33:20;12.80;99.90
14995;DHT22;7593;49.006;8.372;2022-10-17T06:35:50;12.70;99.90
14995;DHT22;7593;49.006;8.372;2022-10-17T06:38:17;12.70;99.90
14995;DHT22;7593;49.006;8.372;2022-10-17T06:40:44;12.80;99.90
14995;DHT22;7593;49.006;8.372;2022-10-17T06:43:11;12.80;99.90
14995;DHT22;7593;49.006;8.372;2022-10-17T06:45:38;12.90;99.90
14995;DHT22;7593;49.006;8.372;2022-10-17T06:48:05;13.00;99.90
14995;DHT22;7593;49.006;8.372;2022-10-17T06:50:34;13.00;99.90
14995;DHT22;7593;49.006;8.372;2022-10-17T06:53:00;13.10;99.90
14995;DHT22;7593;49.006;8.372;2022-10-17T06:55:28;13.20;99.90
14995;DHT22;7593;49.006;8.372;2022-10-17T06:57:56;13.30;99.90
14995;DHT22;7593;49.006;8.372;2022-10-17T07:00:23;13.40;99.90
14995;DHT22;7593;49.006;8.372;2022-10-17T07:02:51;13.60;99.90
14995;DHT22;7593;49.006;8.372;2022-10-17T07:05:17;13.70;99.90
14995;DHT22;7593;49.006;8.372;2022-10-17T07:07:46;13.90;99.90
14995;DHT22;7593;49.006;8.372;2022-10-17T07:10:13;14.20;99.90
14995;DHT22;7593;49.006;8.372;2022-10-17T07:12:40;14.40;99.90
14995;DHT22;7593;49.006;8.372;2022-10-17T07:15:07;14.70;99.90
14995;DHT22;7593;49.006;8.372;2022-10-17T07:17:34;15.00;99.90
14995;DHT22;7593;49.006;8.372;2022-10-17T07:20:01;15.30;99.90
14995;DHT22;7593;49.006;8.372;2022-10-17T07:22:27;15.40;99.90
14995;DHT22;7593;49.006;8.372;2022-10-17T07:24:55;15.60;99.90
14995;DHT22;7593;49.006;8.372;2022-10-17T07:27:22;15.70;99.90
14995;DHT22;7593;49.006;8.372;2022-10-17T07:29:49;15.90;99.90
14995;DHT22;7593;49.006;8.372;2022-10-17T07:32:16;16.10;99.90
14995;DHT22;7593;49.006;8.372;2022-10-17T07:34:42;16.40;99.90
14995;DHT22;7593;49.006;8.372;2022-10-17T07:37:09;16.70;99.90
14995;DHT22;7593;49.006;8.372;2022-10-17T07:39:36;17.00;99.90
14995;DHT22;7593;49.006;8.372;2022-10-17T07:42:05;17.20;99.90
14995;DHT22;7593;49.006;8.372;2022-10-17T07:44:33;17.40;99.90
14995;DHT22;7593;49.006;8.372;2022-10-17T07:47:01;17.50;99.90
14995;DHT22;7593;49.006;8.372;2022-10-17T07:49:27;17.70;99.90
14995;DHT22;7593;49.006;8.372;2022-10-17T07:51:55;17.80;99.90
14995;DHT22;7593;49.006;8.372;2022-10-17T07:54:22;17.90;99.90
14995;DHT22;7593;49.006;8.372;2022-10-17T07:56:49;18.10;99.90
14995;DHT22;7593;49.006;8.372;2022-10-17T07:59:18;18.20;99.90
14995;DHT22;7593;49.006;8.372;2022-10-17T08:01:48;18.40;99.90
14995;DHT22;7593;49.006;8.372;2022-10-17T08:04:17;18.60;99.90
14995;DHT22;7593;49.006;8.372;2022-10-17T08:06:44;18.70;99.90
14995;DHT22;7593;49.006;8.372;2022-10-17T08:09:12;18.80;99.90
14995;DHT22;7593;49.006;8.372;2022-10-17T08:11:42;18.90;99.90
14995;DHT22;7593;49.006;8.372;2022-10-17T08:14:09;19.20;99.90
14995;DHT22;7593;49.006;8.372;2022-10-17T08:16:49;19.30;99.90
14995;DHT22;7593;49.006;8.372;2022-10-17T08:19:19;19.40;99.90
14995;DHT22;7593;49.006;8.372;2022-10-17T08:21:48;19.70;99.90
14995;DHT22;7593;49.006;8.372;2022-10-17T08:24:19;19.90;99.90
14995;DHT22;7593;49.006;8.372;2022-10-17T08:26:46;20.10;99.90
14995;DHT22;7593;49.006;8.372;2022-10-17T08:29:18;20.20;99.90
14995;DHT22;7593;49.006;8.372;2022-10-17T08:31:54;20.40;99.90
14995;DHT22;7593;49.006;8.372;2022-10-17T08:34:24;20.50;99.90
14995;DHT22;7593;49.006;8.372;2022-10-17T08:36:51;20.50;99.90
14995;DHT22;7593;49.006;8.372;2022-10-17T08:39:22;20.60;99.90
14995;DHT22;7593;49.006;8.372;2022-10-17T08:42:10;20.70;99.90
14995;DHT22;7593;49.006;8.372;2022-10-17T08:44:47;20.90;99.90
14995;DHT22;7593;49.006;8.372;2022-10-17T08:47:21;21.10;99.90
14995;DHT22;7593;49.006;8.372;2022-10-17T08:49:55;21.30;99.90
14995;DHT22;7593;49.006;8.372;2022-10-17T08:52:34;21.40;99.90
14995;DHT22;7593;49.006;8.372;2022-10-17T08:55:04;21.20;99.90
14995;DHT22;7593;49.006;8.372;2022-10-17T08:57:35;21.20;99.90
14995;DHT22;7593;49.006;8.372;2022-10-17T09:00:02;21.10;99.90
14995;DHT22;7593;49.006;8.372;2022-10-17T09:02:41;21.10;99.90
14995;DHT22;7593;49.006;8.372;2022-10-17T09:05:36;21.20;99.90
14995;DHT22;7593;49.006;8.372;2022-10-17T09:08:13;21.20;99.90
14995;DHT22;7593;49.006;8.372;2022-10-17T09:10:55;21.20;99.90
14995;DHT22;7593;49.006;8.372;2022-10-17T09:13:31;21.10;99.90
14995;DHT22;7593;49.006;8.372;2022-10-17T09:16:13;21.00;99.90
14995;DHT22;7593;49.006;8.372;2022-10-17T09:18:49;20.80;99.90
14995;DHT22;7593;49.006;8.372;2022-10-17T09:21:22;20.80;99.90
14995;DHT22;7593;49.006;8.372;2022-10-17T09:23:52;20.80;99.90
14995;DHT22;7593;49.006;8.372;2022-10-17T09:26:21;20.70;99.90
14995;DHT22;7593;49.006;8.372;2022-10-17T09:28:52;20.80;99.90
14995;DHT22;7593;49.006;8.372;2022-10-17T09:31:23;20.70;99.90
14995;DHT22;7593;49.006;8.372;2022-10-17T09:33:54;20.80;99.90
14995;DHT22;7593;49.006;8.372;2022-10-17T09:36:24;20.90;99.90
14995;DHT22;7593;49.006;8.372;2022-10-17T09:38:55;21.00;99.90
14995;DHT22;7593;49.006;8.372;2022-10-17T09:41:25;21.10;99.90
14995;DHT22;7593;49.006;8.372;2022-10-17T09:43:55;21.00;99.90
14995;DHT22;7593;49.006;8.372;2022-10-17T09:46:25;21.00;99.90
14995;DHT22;7593;49.006;8.372;2022-10-17T09:48:59;21.10;99.90
14995;DHT22;7593;49.006;8.372;2022-10-17T09:51:27;21.20;99.90
14995;DHT22;7593;49.006;8.372;2022-10-17T09:53:59;21.30;99.90
14995;DHT22;7593;49.006;8.372;2022-10-17T09:56:27;21.40;99.90
14995;DHT22;7593;49.006;8.372;2022-10-17T09:58:56;21.40;99.90
14995;DHT22;7593;49.006;8.372;2022-10-17T10:01:24;21.60;99.90
14995;DHT22;7593;49.006;8.372;2022-10-17T10:07:01;21.80;99.90
14995;DHT22;7593;49.006;8.372;2022-10-17T10:09:31;22.30;99.90
14995;DHT22;7593;49.006;8.372;2022-10-17T10:12:02;22.40;99.90
14995;DHT22;7593;49.006;8.372;2022-10-17T10:14:32;22.50;99.90
14995;DHT22;7593;49.006;8.372;2022-10-17T10:17:00;22.80;99.90
14995;DHT22;7593;49.006;8.372;2022-10-17T10:19:28;23.10;99.90
14995;DHT22;7593;49.006;8.372;2022-10-17T10:21:58;23.50;99.90
14995;DHT22;7593;49.006;8.372;2022-10-17T10:24:26;23.70;99.90
14995;DHT22;7593;49.006;8.372;2022-10-17T10:26:55;23.60;99.90
14995;DHT22;7593;49.006;8.372;2022-10-17T10:29:28;23.70;99.90
14995;DHT22;7593;49.006;8.372;2022-10-17T10:31:56;23.80;99.90
14995;DHT22;7593;49.006;8.372;2022-10-17T10:34:27;23.90;99.90
14995;DHT22;7593;49.006;8.372;2022-10-17T10:36:59;24.00;99.90
14995;DHT22;7593;49.006;8.372;2022-10-17T10:39:42;24.20;99.90
14995;DHT22;7593;49.006;8.372;2022-10-17T10:42:21;24.40;99.90
14995;DHT22;7593;49.006;8.372;2022-10-17T10:44:48;24.50;99.90
14995;DHT22;7593;49.006;8.372;2022-10-17T10:47:21;24.60;99.90
14995;DHT22;7593;49.006;8.372;2022-10-17T10:50:05;24.70;99.90
14995;DHT22;7593;49.006;8.372;2022-10-17T10:52:40;24.70;99.90
14995;DHT22;7593;49.006;8.372;2022-10-17T10:55:16;24.70;99.90
14995;DHT22;7593;49.006;8.372;2022-10-17T10:57:48;24.70;99.90
14995;DHT22;7593;49.006;8.372;2022-10-17T11:00:19;24.30;99.90
14995;DHT22;7593;49.006;8.372;2022-10-17T11:02:53;24.20;99.90
14995;DHT22;7593;49.006;8.372;2022-10-17T11:05:32;24.20;99.90
14995;DHT22;7593;49.006;8.372;2022-10-17T11:08:08;24.30;99.90
14995;DHT22;7593;49.006;8.372;2022-10-17T11:10:40;24.50;99.90
14995;DHT22;7593;49.006;8.372;2022-10-17T11:13:12;24.60;99.90
14995;DHT22;7593;49.006;8.372;2022-10-17T11:15:44;24.80;99.90
14995;DHT22;7593;49.006;8.372;2022-10-17T11:18:21;25.10;99.90
14995;DHT22;7593;49.006;8.372;2022-10-17T11:20:53;25.30;99.90
14995;DHT22;7593;49.006;8.372;2022-10-17T11:23:28;25.50;99.90
14995;DHT22;7593;49.006;8.372;2022-10-17T11:25:59;25.50;99.90
14995;DHT22;7593;49.006;8.372;2022-10-17T11:28:29;25.60;99.90
14995;DHT22;7593;49.006;8.372;2022-10-17T11:30:59;25.60;99.90
14995;DHT22;7593;49.006;8.372;2022-10-17T11:33:29;25.60;99.90
14995;DHT22;7593;49.006;8.372;2022-10-17T11:36:02;25.80;99.90
14995;DHT22;7593;49.006;8.372;2022-10-17T11:38:40;26.00;99.90
14995;DHT22;7593;49.006;8.372;2022-10-17T11:41:11;26.00;99.90
14995;DHT22;7593;49.006;8.372;2022-10-17T11:43:44;26.10;99.90
14995;DHT22;7593;49.006;8.372;2022-10-17T11:46:17;26.10;99.90
14995;DHT22;7593;49.006;8.372;2022-10-17T11:49:03;26.30;99.90
14995;DHT22;7593;49.006;8.372;2022-10-17T11:51:37;26.40;99.90
14995;DHT22;7593;49.006;8.372;2022-10-17T11:54:10;26.30;99.90
14995;DHT22;7593;49.006;8.372;2022-10-17T11:56:43;26.60;99.90
14995;DHT22;7593;49.006;8.372;2022-10-17T11:59:44;26.80;99.90
14995;DHT22;7593;49.006;8.372;2022-10-17T12:02:17;27.00;99.90
14995;DHT22;7593;49.006;8.372;2022-10-17T12:04:55;27.00;99.90
14995;DHT22;7593;49.006;8.372;2022-10-17T12:07:31;26.80;99.90
14995;DHT22;7593;49.006;8.372;2022-10-17T12:10:17;26.50;99.90
14995;DHT22;7593;49.006;8.372;2022-10-17T12:12:45;26.30;99.90
14995;DHT22;7593;49.006;8.372;2022-10-17T12:15:28;26.40;99.90
14995;DHT22;7593;49.006;8.372;2022-10-17T12:17:56;26.70;99.90
14995;DHT22;7593;49.006;8.372;2022-10-17T12:20:32;26.80;99.90
14995;DHT22;7593;49.006;8.372;2022-10-17T12:23:17;26.90;99.90
14995;DHT22;7593;49.006;8.372;2022-10-17T12:25:51;27.00;99.90
14995;DHT22;7593;49.006;8.372;2022-10-17T12:28:25;27.10;99.90
14995;DHT22;7593;49.006;8.372;2022-10-17T12:30:55;27.20;99.90
14995;DHT22;7593;49.006;8.372;2022-10-17T12:33:27;27.00;99.90
14995;DHT22;7593;49.006;8.372;2022-10-17T12:42:48;27.10;99.90
14995;DHT22;7593;49.006;8.372;2022-10-17T12:45:43;27.00;99.90
14995;DHT22;7593;49.006;8.372;2022-10-17T12:48:10;27.40;99.90
14995;DHT22;7593;49.006;8.372;2022-10-17T12:51:00;27.60;99.90
14995;DHT22;7593;49.006;8.372;2022-10-17T12:53:35;27.60;99.90
14995;DHT22;7593;49.006;8.372;2022-10-17T12:56:05;28.00;99.90
14995;DHT22;7593;49.006;8.372;2022-10-17T12:58:33;28.30;99.90
14995;DHT22;7593;49.006;8.372;2022-10-17T13:01:01;28.60;99.90
14995;DHT22;7593;49.006;8.372;2022-10-17T13:03:31;28.80;99.90
14995;DHT22;7593;49.006;8.372;2022-10-17T13:06:02;29.10;99.90
14995;DHT22;7593;49.006;8.372;2022-10-17T13:08:32;29.30;99.90
14995;DHT22;7593;49.006;8.372;2022-10-17T13:10:59;29.40;99.90
14995;DHT22;7593;49.006;8.372;2022-10-17T13:13:37;29.80;99.90
14995;DHT22;7593;49.006;8.372;2022-10-17T13:16:07;29.80;99.90
14995;DHT22;7593;49.006;8.372;2022-10-17T13:18:34;30.10;99.90
14995;DHT22;7593;49.006;8.372;2022-10-17T13:21:04;30.20;99.90
14995;DHT22;7593;49.006;8.372;2022-10-17T13:23:33;30.40;99.90
14995;DHT22;7593;49.006;8.372;2022-10-17T13:26:06;30.50;99.90
14995;DHT22;7593;49.006;8.372;2022-10-17T13:28:33;30.40;99.90
14995;DHT22;7593;49.006;8.372;2022-10-17T13:31:01;30.40;99.90
14995;DHT22;7593;49.006;8.372;2022-10-17T13:33:32;30.70;99.90
14995;DHT22;7593;49.006;8.372;2022-10-17T13:36:01;31.20;99.90
14995;DHT22;7593;49.006;8.372;2022-10-17T13:38:31;31.20;99.90
14995;DHT22;7593;49.006;8.372;2022-10-17T13:40:59;31.10;99.90
14995;DHT22;7593;49.006;8.372;2022-10-17T13:43:26;30.90;99.90
14995;DHT22;7593;49.006;8.372;2022-10-17T13:45:56;31.00;99.90
14995;DHT22;7593;49.006;8.372;2022-10-17T13:48:31;31.10;99.90
14995;DHT22;7593;49.006;8.372;2022-10-17T13:50:59;31.00;99.90
14995;DHT22;7593;49.006;8.372;2022-10-17T13:53:30;31.00;99.90
14995;DHT22;7593;49.006;8.372;2022-10-17T13:55:59;31.30;99.90
14995;DHT22;7593;49.006;8.372;2022-10-17T13:58:30;31.00;99.90
14995;DHT22;7593;49.006;8.372;2022-10-17T14:00:59;30.90;99.90
14995;DHT22;7593;49.006;8.372;2022-10-17T14:03:26;30.70;99.90
14995;DHT22;7593;49.006;8.372;2022-10-17T14:06:10;30.50;99.90
14995;DHT22;7593;49.006;8.372;2022-10-17T14:08:39;30.40;99.90
14995;DHT22;7593;49.006;8.372;2022-10-17T14:11:14;30.60;99.90
14995;DHT22;7593;49.006;8.372;2022-10-17T14:13:47;30.70;99.90
14995;DHT22;7593;49.006;8.372;2022-10-17T14:16:15;30.80;99.90
14995;DHT22;7593;49.006;8.372;2022-10-17T14:18:46;30.90;99.90
14995;DHT22;7593;49.006;8.372;2022-10-17T14:21:20;31.00;99.90
14995;DHT22;7593;49.006;8.372;2022-10-17T14:23:47;30.90;99.90
14995;DHT22;7593;49.006;8.372;2022-10-17T14:26:16;30.40;99.90
14995;DHT22;7593;49.006;8.372;2022-10-17T14:28:45;30.30;99.90
14995;DHT22;7593;49.006;8.372;2022-10-17T14:31:24;30.30;99.90
14995;DHT22;7593;49.006;8.372;2022-10-17T14:33:52;30.40;99.90
14995;DHT22;7593;49.006;8.372;2022-10-17T14:36:33;30.20;99.90
14995;DHT22;7593;49.006;8.372;2022-10-17T14:39:02;30.20;99.90
14995;DHT22;7593;49.006;8.372;2022-10-17T14:41:31;30.20;99.90
14995;DHT22;7593;49.006;8.372;2022-10-17T14:44:01;30.30;99.90
14995;DHT22;7593;49.006;8.372;2022-10-17T14:46:29;30.20;99.90
14995;DHT22;7593;49.006;8.372;2022-10-17T14:49:03;30.00;99.90
14995;DHT22;7593;49.006;8.372;2022-10-17T14:51:32;29.90;99.90
14995;DHT22;7593;49.006;8.372;2022-10-17T14:54:02;29.90;99.90
14995;DHT22;7593;49.006;8.372;2022-10-17T14:56:36;29.60;99.90
14995;DHT22;7593;49.006;8.372;2022-10-17T14:59:04;29.40;99.90
14995;DHT22;7593;49.006;8.372;2022-10-17T15:01:32;29.10;99.90
14995;DHT22;7593;49.006;8.372;2022-10-17T15:04:00;28.90;99.90
14995;DHT22;7593;49.006;8.372;2022-10-17T15:06:28;28.70;99.90
14995;DHT22;7593;49.006;8.372;2022-10-17T15:08:57;28.40;99.90
14995;DHT22;7593;49.006;8.372;2022-10-17T15:11:24;28.30;99.90
14995;DHT22;7593;49.006;8.372;2022-10-17T15:13:50;28.40;99.90
14995;DHT22;7593;49.006;8.372;2022-10-17T15:16:19;28.50;99.90
14995;DHT22;7593;49.006;8.372;2022-10-17T15:18:46;28.40;99.90
14995;DHT22;7593;49.006;8.372;2022-10-17T15:21:15;28.30;99.90
14995;DHT22;7593;49.006;8.372;2022-10-17T15:23:42;28.30;99.90
14995;DHT22;7593;49.006;8.372;2022-10-17T15:26:13;28.20;99.90
14995;DHT22;7593;49.006;8.372;2022-10-17T15:28:41;28.10;99.90
14995;DHT22;7593;49.006;8.372;2022-10-17T15:31:10;28.10;99.90
14995;DHT22;7593;49.006;8.372;2022-10-17T15:33:37;28.10;99.90
14995;DHT22;7593;49.006;8.372;2022-10-17T15:36:04;28.00;99.90
14995;DHT22;7593;49.006;8.372;2022-10-17T15:38:42;28.00;99.90
14995;DHT22;7593;49.006;8.372;2022-10-17T15:41:09;27.70;99.90
14995;DHT22;7593;49.006;8.372;2022-10-17T15:43:38;27.50;99.90
14995;DHT22;7593;49.006;8.372;2022-10-17T15:46:10;27.20;99.90
14995;DHT22;7593;49.006;8.372;2022-10-17T15:48:37;26.80;99.90
14995;DHT22;7593;49.006;8.372;2022-10-17T15:51:04;26.50;99.90
14995;DHT22;7593;49.006;8.372;2022-10-17T15:53:31;26.20;99.90
14995;DHT22;7593;49.006;8.372;2022-10-17T15:55:58;26.00;99.90
14995;DHT22;7593;49.006;8.372;2022-10-17T15:58:26;25.80;99.90
14995;DHT22;7593;49.006;8.372;2022-10-17T16:00:56;25.60;99.90
14995;DHT22;7593;49.006;8.372;2022-10-17T16:03:23;25.40;99.90
14995;DHT22;7593;49.006;8.372;2022-10-17T16:05:49;25.20;99.90
14995;DHT22;7593;49.006;8.372;2022-10-17T16:08:16;25.00;99.90
14995;DHT22;7593;49.006;8.372;2022-10-17T16:10:43;24.90;99.90
14995;DHT22;7593;49.006;8.372;2022-10-17T16:13:13;24.70;99.90
14995;DHT22;7593;49.006;8.372;2022-10-17T16:15:42;24.50;99.90